Time;durP1;ratioP1;P1;durP2;ratioP2;P2;SDS_P1;SDS_P2;PMS_P1;PMS_P2;Temp;Humidity;BMP_temperature;BMP_pressure;BME280_temperature;BME280_humidity;BME280_pressure;Samples;Min_cycle;Max_cycle;Signal;HPM_P1;HPM_P2
2021/11/09 00:00:41;;;;;;;20.52;9.98;;;0.40;97.10;;;;;;4996562;28;22289;-67
2021/11/09 00:03:09;;;;;;;30.77;11.10;;;0.40;97.80;;;;;;4997987;28;20029;-67
2021/11/09 00:05:43;;;;;;;51.30;14.40;;;0.40;98.80;;;;;;4999030;28;20076;-67
2021/11/09 00:08:13;;;;;;;30.30;11.43;;;0.40;99.40;;;;;;5011388;28;20040;-68
2021/11/09 00:10:39;;;;;;;44.97;10.68;;;0.40;99.90;;;;;;5016802;28;20038;-67
2021/11/09 00:13:05;;;;;;;22.65;9.10;;;0.40;99.90;;;;;;5001627;28;20112;-67
2021/11/09 00:15:32;;;;;;;57.17;15.98;;;0.30;99.90;;;;;;4996916;28;20041;-68
2021/11/09 00:18:01;;;;;;;60.75;13.82;;;0.40;99.90;;;;;;4998706;28;20128;-67
2021/11/09 00:20:32;;;;;;;19.23;7.05;;;0.40;99.90;;;;;;4995595;28;20041;-67
2021/11/09 00:22:58;;;;;;;26.02;6.10;;;0.40;99.90;;;;;;4997855;28;20025;-67
2021/11/09 00:25:25;;;;;;;25.60;6.88;;;0.40;99.90;;;;;;4997733;28;20030;-68
2021/11/09 00:27:51;;;;;;;7.18;4.55;;;0.30;99.90;;;;;;4998686;28;20032;-67
2021/11/09 00:30:19;;;;;;;16.65;6.93;;;0.30;99.90;;;;;;4999431;28;20602;-67
2021/11/09 00:32:46;;;;;;;12.80;5.93;;;0.40;99.90;;;;;;4996235;28;20037;-67
2021/11/09 00:35:14;;;;;;;16.70;5.55;;;0.40;99.90;;;;;;4995474;28;20551;-67
2021/11/09 00:37:41;;;;;;;11.20;5.13;;;0.30;99.90;;;;;;4997502;28;20415;-67
2021/11/09 00:40:08;;;;;;;68.70;17.17;;;0.30;99.90;;;;;;5008087;28;20041;-67
2021/11/09 00:42:34;;;;;;;19.33;5.13;;;0.30;99.90;;;;;;4998539;28;20479;-68
2021/11/09 00:45:00;;;;;;;35.78;8.43;;;0.30;99.90;;;;;;5000381;28;20101;-67
2021/11/09 00:47:26;;;;;;;10.75;4.65;;;0.30;99.90;;;;;;5002438;28;20041;-67
2021/11/09 00:49:52;;;;;;;25.70;7.50;;;0.30;99.90;;;;;;4995986;28;20056;-68
2021/11/09 00:52:19;;;;;;;8.20;6.00;;;0.30;99.90;;;;;;4995245;28;20045;-67
2021/11/09 00:54:44;;;;;;;13.05;5.30;;;0.30;99.90;;;;;;4997392;28;20038;-67
2021/11/09 00:57:10;;;;;;;12.70;5.72;;;0.30;99.90;;;;;;4997568;28;20053;-67
2021/11/09 00:59:36;;;;;;;7.97;5.47;;;0.20;99.90;;;;;;4996564;28;20033;-67
2021/11/09 01:02:02;;;;;;;9.10;4.55;;;0.20;99.90;;;;;;4998291;28;20045;-67
2021/11/09 01:04:29;;;;;;;41.85;12.35;;;0.20;99.90;;;;;;4994910;28;20116;-68
2021/11/09 01:06:55;;;;;;;102.88;24.35;;;0.20;99.90;;;;;;4996345;28;20021;-67
2021/11/09 01:09:22;;;;;;;26.45;11.73;;;0.20;99.90;;;;;;4994822;28;20062;-67
2021/11/09 01:11:52;;;;;;;26.38;10.88;;;0.10;99.90;;;;;;4994239;28;20083;-68
2021/11/09 01:14:18;;;;;;;35.35;9.63;;;0.10;99.90;;;;;;4995109;28;20384;-67
2021/11/09 01:16:44;;;;;;;24.40;9.10;;;0.00;99.90;;;;;;4999187;28;20113;-67
2021/11/09 01:19:10;;;;;;;42.28;12.60;;;0.00;99.90;;;;;;4997176;28;20030;-67
2021/11/09 01:21:37;;;;;;;50.72;13.40;;;0.00;99.90;;;;;;5000347;28;20076;-68
2021/11/09 01:24:04;;;;;;;30.73;6.32;;;0.00;99.90;;;;;;4996440;28;20017;-68
2021/11/09 01:26:30;;;;;;;19.77;7.43;;;0.00;99.80;;;;;;4995398;28;20034;-67
2021/11/09 01:28:59;;;;;;;8.70;5.18;;;0.10;99.90;;;;;;4996720;28;20034;-67
2021/11/09 01:31:25;;;;;;;9.75;4.85;;;0.10;99.40;;;;;;4994204;28;20513;-67
2021/11/09 01:33:52;;;;;;;50.17;11.82;;;0.00;98.70;;;;;;4994906;28;20033;-67
2021/11/09 01:36:18;;;;;;;195.45;41.17;;;0.00;98.90;;;;;;4996862;28;20021;-68
2021/11/09 01:38:44;;;;;;;23.45;9.77;;;0.00;98.90;;;;;;4995785;28;20069;-68
2021/11/09 01:41:11;;;;;;;21.05;6.40;;;0.00;98.70;;;;;;4994345;28;21084;-67
2021/11/09 01:43:38;;;;;;;62.90;18.08;;;0.00;98.20;;;;;;4998684;28;20631;-67
2021/11/09 01:46:05;;;;;;;60.95;16.88;;;0.00;97.90;;;;;;4994615;28;20120;-67
2021/11/09 01:48:31;;;;;;;23.77;7.68;;;0.00;98.40;;;;;;4997611;28;20025;-67
2021/11/09 01:51:04;;;;;;;23.95;7.93;;;-0.10;98.30;;;;;;4995841;28;20036;-68
2021/11/09 01:53:31;;;;;;;19.08;7.13;;;-0.10;98.70;;;;;;5000989;28;20041;-68
2021/11/09 01:55:59;;;;;;;27.92;9.60;;;-0.10;98.70;;;;;;4997842;28;20159;-67
2021/11/09 01:58:26;;;;;;;18.75;7.00;;;-0.20;99.00;;;;;;4991675;28;20025;-68
2021/11/09 02:00:58;;;;;;;22.23;8.25;;;-0.20;99.30;;;;;;4993369;28;20061;-67
2021/11/09 02:03:25;;;;;;;18.60;4.97;;;-0.10;99.40;;;;;;4995598;28;20103;-67
2021/11/09 02:05:51;;;;;;;15.95;4.93;;;-0.20;98.60;;;;;;4993900;28;20111;-68
2021/11/09 02:08:18;;;;;;;15.63;5.50;;;-0.30;98.50;;;;;;4997424;28;20037;-67
2021/11/09 02:10:46;;;;;;;10.10;4.60;;;-0.30;98.80;;;;;;4996717;28;20498;-68
2021/11/09 02:13:13;;;;;;;7.70;5.70;;;-0.30;99.70;;;;;;4996621;28;20485;-67
2021/11/09 02:15:42;;;;;;;6.30;5.07;;;-0.30;99.90;;;;;;5011267;28;20037;-67
2021/11/09 02:18:08;;;;;;;;;;;-0.30;99.80;;;;;;4995554;28;20034;-67
2021/11/09 02:20:34;;;;;;;7.93;4.60;;;-0.30;99.30;;;;;;4997362;28;20945;-68
2021/11/09 02:23:00;;;;;;;33.28;8.73;;;-0.30;99.20;;;;;;4993504;28;21615;-67
2021/11/09 02:25:28;;;;;;;94.05;24.48;;;-0.20;99.00;;;;;;4993116;28;21206;-67
2021/11/09 02:27:55;;;;;;;20.13;7.10;;;-0.20;98.90;;;;;;5008049;28;20080;-67
2021/11/09 02:30:24;;;;;;;8.82;5.68;;;-0.20;98.20;;;;;;4997377;28;20074;-67
2021/11/09 02:32:52;;;;;;;8.73;5.72;;;-0.30;97.50;;;;;;5009975;28;20136;-67
2021/11/09 02:35:19;;;;;;;13.43;6.18;;;-0.30;97.60;;;;;;4995616;28;20483;-68
2021/11/09 02:37:45;;;;;;;23.95;6.95;;;-0.30;97.30;;;;;;4995887;28;20022;-67
2021/11/09 02:40:11;;;;;;;28.95;9.10;;;-0.30;96.60;;;;;;4994757;28;20048;-67
2021/11/09 02:42:41;;;;;;;64.03;21.25;;;-0.40;96.40;;;;;;4993404;28;20026;-68
2021/11/09 02:45:33;;;;;;;44.90;6.72;;;-0.40;96.80;;;;;;4991717;28;20100;-67
2021/11/09 02:48:05;;;;;;;6.05;4.45;;;-0.50;97.00;;;;;;4995804;28;20052;-67
2021/11/09 02:50:35;;;;;;;8.15;5.43;;;-0.50;97.30;;;;;;4993054;28;20033;-67
2021/11/09 02:53:05;;;;;;;7.22;5.00;;;-0.50;97.30;;;;;;4992069;28;20133;-68
2021/11/09 02:55:54;;;;;;;6.45;4.88;;;-0.50;97.60;;;;;;4998415;28;20566;-68
2021/11/09 03:03:30;;;;;;;6.85;4.85;;;-0.50;97.10;;;;;;4993858;28;20033;-67
2021/11/09 03:08:38;;;;;;;13.38;5.03;;;-0.50;97.30;;;;;;4997567;28;20046;-68
2021/11/09 03:11:05;;;;;;;6.07;4.25;;;-0.60;97.70;;;;;;4993225;28;20114;-68
2021/11/09 03:13:31;;;;;;;21.25;5.22;;;-0.60;97.80;;;;;;4995121;28;20030;-68
2021/11/09 03:16:02;;;;;;;9.32;5.40;;;-0.60;97.80;;;;;;4994044;28;20033;-68
2021/11/09 03:18:29;;;;;;;6.28;4.63;;;-0.60;97.70;;;;;;5009708;28;20061;-68
2021/11/09 03:23:07;;;;;;;7.60;4.72;;;-0.70;98.10;;;;;;5008449;28;20049;-68
2021/11/09 03:45:30;;;;;;;150.25;34.53;;;-0.90;99.40;;;;;;4995806;28;20045;-67
2021/11/09 03:48:03;;;;;;;94.60;24.85;;;-0.80;99.00;;;;;;4995877;28;20026;-68
2021/11/09 03:50:29;;;;;;;26.38;8.35;;;-0.80;98.60;;;;;;4996018;28;20040;-68
2021/11/09 03:53:00;;;;;;;16.95;6.28;;;-0.80;97.50;;;;;;4995258;28;20084;-68
2021/11/09 03:55:39;;;;;;;9.90;3.97;;;-0.90;97.20;;;;;;4995575;28;20073;-68
2021/11/09 03:58:12;;;;;;;5.80;4.53;;;-1.00;96.20;;;;;;4996136;28;20099;-68
2021/11/09 04:01:17;;;;;;;6.60;3.75;;;-1.00;96.60;;;;;;4993935;28;20108;-67
2021/11/09 04:03:52;;;;;;;4.68;4.25;;;-1.00;97.10;;;;;;4994642;28;20045;-68
2021/11/09 04:21:49;;;;;;;6.38;5.03;;;-0.80;97.30;;;;;;4985861;28;20048;-68
2021/11/09 04:27:41;;;;;;;4.90;4.28;;;-0.90;97.00;;;;;;4996093;28;20462;-68
2021/11/09 04:53:47;;;;;;;6.18;4.55;;;-1.00;97.50;;;;;;4995474;28;20095;-68
2021/11/09 05:01:48;;;;;;;7.32;5.13;;;-1.20;98.40;;;;;;4994748;28;20111;-67
2021/11/09 05:09:53;;;;;;;8.85;4.50;;;-1.10;97.00;;;;;;4994386;28;20568;-68
2021/11/09 05:12:20;;;;;;;8.18;4.95;;;-1.10;96.90;;;;;;4992958;28;20029;-68
2021/11/09 05:14:45;;;;;;;8.85;4.05;;;-1.10;97.30;;;;;;4991132;28;20034;-68
2021/11/09 05:17:11;;;;;;;6.47;5.65;;;-1.10;97.40;;;;;;4993587;28;20037;-68
2021/11/09 05:19:37;;;;;;;7.97;5.13;;;-1.10;97.00;;;;;;4993759;28;20399;-69
2021/11/09 05:22:03;;;;;;;8.48;6.07;;;-1.10;97.10;;;;;;4994628;28;20112;-67
2021/11/09 05:24:28;;;;;;;6.35;4.63;;;-1.10;97.40;;;;;;4995337;28;20030;-67
2021/11/09 05:26:54;;;;;;;4.68;3.90;;;-1.20;97.70;;;;;;4994071;28;20026;-67
2021/11/09 05:29:20;;;;;;;5.10;3.80;;;-1.20;97.50;;;;;;4993835;28;20037;-67
2021/11/09 05:31:45;;;;;;;6.15;4.63;;;-1.10;97.40;;;;;;4994874;28;20213;-68
2021/11/09 05:34:11;;;;;;;6.18;4.40;;;-1.20;98.10;;;;;;4995243;28;20045;-67
2021/11/09 05:36:40;;;;;;;7.10;5.25;;;-1.20;98.10;;;;;;4992307;28;20025;-67
2021/11/09 05:39:23;;;;;;;7.15;5.05;;;-1.20;97.70;;;;;;4996207;28;20523;-68
2021/11/09 05:41:51;;;;;;;5.70;4.40;;;-1.10;97.70;;;;;;4994139;28;20088;-68
2021/11/09 05:44:17;;;;;;;7.57;5.43;;;-1.20;97.70;;;;;;4997611;28;20458;-68
2021/11/09 05:46:43;;;;;;;4.68;4.20;;;-1.20;97.50;;;;;;4997711;28;20064;-67
2021/11/09 05:49:09;;;;;;;5.90;3.92;;;-1.10;97.00;;;;;;4993720;28;20038;-68
2021/11/09 05:51:35;;;;;;;4.88;4.50;;;-1.10;96.90;;;;;;4994674;28;20065;-68
2021/11/09 05:54:02;;;;;;;9.18;5.13;;;-1.20;97.00;;;;;;4998372;28;20058;-67
2021/11/09 05:56:28;;;;;;;8.98;5.13;;;-1.20;97.20;;;;;;4993856;28;20033;-67
2021/11/09 05:58:54;;;;;;;9.32;6.15;;;-1.30;97.40;;;;;;4992827;28;20064;-68
2021/11/09 06:01:20;;;;;;;8.07;5.25;;;-1.20;97.60;;;;;;4993430;28;20562;-68
2021/11/09 06:03:45;;;;;;;8.57;4.78;;;-1.10;97.50;;;;;;4994794;28;20038;-67
2021/11/09 06:06:11;;;;;;;8.20;4.97;;;-1.20;97.80;;;;;;4995038;28;20033;-67
2021/11/09 06:08:37;;;;;;;11.55;6.22;;;-1.10;97.60;;;;;;5008671;28;20033;-68
2021/11/09 06:11:03;;;;;;;12.48;5.72;;;-1.20;98.00;;;;;;5006651;28;20030;-67
2021/11/09 06:13:29;;;;;;;12.18;6.45;;;-1.30;98.70;;;;;;4993584;28;20030;-68
2021/11/09 06:15:55;;;;;;;9.30;6.65;;;-1.30;98.70;;;;;;4994740;28;20076;-67
2021/11/09 06:18:20;;;;;;;7.22;5.90;;;-1.30;98.70;;;;;;4991658;28;20109;-67
2021/11/09 06:20:46;;;;;;;5.90;4.55;;;-1.30;98.30;;;;;;4992186;28;20037;-68
2021/11/09 06:23:12;;;;;;;7.63;5.00;;;-1.30;98.10;;;;;;4992835;28;20124;-69
2021/11/09 06:25:40;;;;;;;8.65;4.95;;;-1.20;98.40;;;;;;4991387;28;20034;-69
2021/11/09 06:28:06;;;;;;;5.97;4.87;;;-1.20;98.00;;;;;;4992364;28;20096;-68
2021/11/09 06:30:33;;;;;;;3.83;3.53;;;-1.20;97.80;;;;;;4990628;28;20272;-68
2021/11/09 06:32:59;;;;;;;4.75;4.25;;;-1.30;97.40;;;;;;4992229;28;20072;-67
2021/11/09 06:35:26;;;;;;;5.43;4.15;;;-1.30;97.60;;;;;;5006482;28;20034;-68
2021/11/09 06:37:52;;;;;;;6.82;4.82;;;-1.30;98.10;;;;;;4993034;28;20069;-68
2021/11/09 06:40:18;;;;;;;6.30;5.07;;;-1.30;98.70;;;;;;4992854;28;20025;-67
2021/11/09 06:42:44;;;;;;;9.93;5.90;;;-1.20;99.10;;;;;;4992469;28;20068;-68
2021/11/09 06:45:10;;;;;;;7.32;5.05;;;-1.20;98.60;;;;;;4991374;28;20033;-67
2021/11/09 06:47:36;;;;;;;5.22;4.70;;;-1.20;98.70;;;;;;4991327;28;20034;-68
2021/11/09 06:50:03;;;;;;;8.80;4.85;;;-1.20;99.00;;;;;;4993302;28;20112;-67
2021/11/09 06:52:28;;;;;;;7.25;5.25;;;-1.10;98.50;;;;;;4992128;28;20045;-67
2021/11/09 06:54:54;;;;;;;7.63;5.60;;;-1.10;98.20;;;;;;4992179;28;20107;-68
2021/11/09 06:57:20;;;;;;;11.02;6.03;;;-1.20;97.90;;;;;;4992867;28;20034;-67
2021/11/09 06:59:47;;;;;;;9.85;6.18;;;-1.20;97.40;;;;;;4995734;28;20040;-68
2021/11/09 07:02:14;;;;;;;15.73;7.23;;;-1.20;97.60;;;;;;4995811;28;20054;-68
2021/11/09 07:04:39;;;;;;;10.60;6.90;;;-1.20;98.00;;;;;;4992641;28;20037;-68
2021/11/09 07:07:06;;;;;;;16.55;7.57;;;-1.10;98.50;;;;;;4989720;28;20029;-67
2021/11/09 07:09:31;;;;;;;14.40;6.88;;;-1.00;98.70;;;;;;5007333;28;20402;-68
2021/11/09 07:11:57;;;;;;;9.88;6.47;;;-1.00;98.80;;;;;;4992704;28;20096;-68
2021/11/09 07:14:23;;;;;;;11.43;7.65;;;-1.00;98.50;;;;;;4990278;28;20049;-67
2021/11/09 07:16:51;;;;;;;14.43;7.40;;;-1.10;98.60;;;;;;4991598;28;20398;-68
2021/11/09 07:19:19;;;;;;;9.38;6.13;;;-1.00;99.10;;;;;;4989369;28;20157;-68
2021/11/09 07:21:46;;;;;;;12.65;6.68;;;-1.00;99.60;;;;;;4990999;28;20125;-68
2021/11/09 07:24:12;;;;;;;10.27;5.95;;;-0.90;99.90;;;;;;4990724;28;20029;-68
2021/11/09 07:26:37;;;;;;;9.98;7.43;;;-0.90;99.90;;;;;;4995590;28;20109;-68
2021/11/09 07:29:03;;;;;;;11.45;7.72;;;-0.90;99.90;;;;;;4996241;28;20441;-69
2021/11/09 07:31:32;;;;;;;10.98;5.93;;;-0.90;99.90;;;;;;4994210;28;20534;-68
2021/11/09 07:33:59;;;;;;;13.88;6.70;;;-0.80;99.90;;;;;;4994254;28;20041;-68
2021/11/09 07:36:25;;;;;;;11.40;6.88;;;-0.80;99.90;;;;;;4992874;28;20042;-68
2021/11/09 07:38:51;;;;;;;13.60;6.32;;;-0.80;99.90;;;;;;5011177;28;20112;-68
2021/11/09 07:41:17;;;;;;;13.55;6.63;;;-0.70;99.90;;;;;;4995644;28;20076;-68
2021/11/09 07:43:43;;;;;;;7.55;5.97;;;-0.60;99.90;;;;;;4994598;28;20034;-68
2021/11/09 07:46:09;;;;;;;9.77;6.60;;;-0.60;99.90;;;;;;4992711;28;20034;-67
2021/11/09 07:48:35;;;;;;;24.13;7.70;;;-0.50;99.90;;;;;;4992702;28;20040;-68
2021/11/09 07:51:01;;;;;;;12.07;6.20;;;-0.50;99.90;;;;;;4991194;28;20491;-69
2021/11/09 07:53:33;;;;;;;10.88;6.68;;;-0.40;99.90;;;;;;4993409;28;20049;-68
2021/11/09 08:02:00;;;;;;;11.35;6.47;;;-0.20;99.90;;;;;;4991460;28;20165;-68
2021/11/09 08:04:31;;;;;;;9.95;5.82;;;-0.10;99.90;;;;;;4991347;28;20040;-68
2021/11/09 08:07:04;;;;;;;9.45;5.70;;;-0.10;99.90;;;;;;4990194;28;20034;-67
2021/11/09 08:09:30;;;;;;;19.38;7.60;;;0.10;99.90;;;;;;4990906;28;20029;-68
2021/11/09 08:11:59;;;;;;;8.23;6.28;;;0.20;99.90;;;;;;5004310;28;20052;-68
2021/11/09 08:14:25;;;;;;;12.80;7.38;;;0.20;99.90;;;;;;4991534;28;20029;-68
2021/11/09 08:16:51;;;;;;;8.45;5.30;;;0.30;99.90;;;;;;4991540;28;20038;-68
2021/11/09 08:19:18;;;;;;;16.27;8.00;;;0.40;99.90;;;;;;4991844;28;20541;-67
2021/11/09 08:21:46;;;;;;;14.75;8.73;;;0.60;99.90;;;;;;4993475;28;20041;-69
2021/11/09 08:24:15;;;;;;;19.92;8.05;;;0.80;99.90;;;;;;5004519;28;20113;-68
2021/11/09 08:26:41;;;;;;;27.77;9.70;;;1.10;99.90;;;;;;4998194;28;20042;-67
2021/11/09 08:29:07;;;;;;;16.85;8.88;;;1.40;99.90;;;;;;5001938;28;21671;-67
2021/11/09 08:31:35;;;;;;;18.33;9.20;;;1.70;99.90;;;;;;4996030;28;20062;-68
2021/11/09 08:34:02;;;;;;;13.97;7.93;;;1.80;99.90;;;;;;5002377;28;20037;-67
2021/11/09 08:36:31;;;;;;;22.15;8.95;;;2.00;99.90;;;;;;4994234;28;20336;-67
2021/11/09 08:38:58;;;;;;;16.48;8.43;;;2.10;99.90;;;;;;4993600;28;20076;-68
2021/11/09 08:41:28;;;;;;;18.77;8.15;;;2.20;99.90;;;;;;4998200;28;20664;-68
2021/11/09 08:46:29;;;;;;;17.70;8.65;;;2.50;99.90;;;;;;5002729;28;20033;-68
2021/11/09 08:48:55;;;;;;;21.92;9.05;;;2.60;99.90;;;;;;4996216;28;20030;-68
2021/11/09 08:51:21;;;;;;;16.35;7.72;;;2.70;99.90;;;;;;4995114;28;20044;-67
2021/11/09 08:53:58;;;;;;;15.80;6.85;;;3.00;99.90;;;;;;5002538;28;20083;-67
2021/11/09 08:56:31;;;;;;;17.63;8.05;;;3.00;99.90;;;;;;5023445;28;20030;-66
2021/11/09 09:04:25;;;;;;;14.25;7.35;;;3.20;99.90;;;;;;4994789;28;20065;-67
2021/11/09 09:06:54;;;;;;;18.17;8.00;;;3.40;99.90;;;;;;5010891;28;20034;-68
2021/11/09 09:09:20;;;;;;;;;;;3.50;99.90;;;;;;5022883;28;20041;-68
2021/11/09 09:11:48;;;;;;;13.90;7.03;;;3.60;99.90;;;;;;5002408;28;19913;-68
2021/11/09 09:14:14;;;;;;;16.80;8.17;;;3.60;99.90;;;;;;5010805;28;20639;-68
2021/11/09 09:16:45;;;;;;;19.25;8.23;;;3.60;99.90;;;;;;5001865;28;20285;-67
2021/11/09 09:19:12;;;;;;;19.40;8.45;;;3.80;99.90;;;;;;4998567;28;20033;-68
2021/11/09 09:22:13;;;;;;;14.85;7.47;;;3.90;99.90;;;;;;4994781;28;20061;-66
2021/11/09 09:57:14;;;;;;;8.40;5.45;;;4.80;97.80;;;;;;4995159;28;20051;-69
2021/11/09 09:59:43;;;;;;;9.50;5.40;;;4.80;96.50;;;;;;4992345;28;20018;-68
2021/11/09 10:02:14;;;;;;;11.30;5.25;;;4.90;96.40;;;;;;4995327;28;20049;-68
2021/11/09 10:04:47;;;;;;;9.30;4.35;;;5.00;96.70;;;;;;5000254;28;20041;-68
2021/11/09 10:07:25;;;;;;;7.95;5.38;;;5.10;95.50;;;;;;4994899;28;20076;-68
2021/11/09 10:09:51;;;;;;;9.80;4.28;;;5.10;94.60;;;;;;5002160;28;20103;-68
2021/11/09 10:12:21;;;;;;;10.30;4.97;;;5.20;94.10;;;;;;4995441;28;20049;-68
2021/11/09 10:14:53;;;;;;;11.93;5.13;;;5.20;94.50;;;;;;4994140;28;20495;-69
2021/11/09 10:17:22;;;;;;;7.32;4.40;;;5.30;94.80;;;;;;5012278;28;20084;-68
2021/11/09 10:19:48;;;;;;;;;;;5.40;94.60;;;;;;5011366;28;20053;-68
2021/11/09 10:22:24;;;;;;;11.20;5.28;;;5.40;94.20;;;;;;4992110;28;20000;-69
2021/11/09 10:24:54;;;;;;;10.88;4.82;;;5.50;93.90;;;;;;4997784;28;20763;-68
2021/11/09 10:27:20;;;;;;;6.78;5.00;;;5.60;93.70;;;;;;4993663;28;20029;-69
2021/11/09 10:29:46;;;;;;;8.18;4.97;;;5.70;92.70;;;;;;4991603;28;20029;-69
2021/11/09 10:32:16;;;;;;;11.10;5.10;;;5.70;92.70;;;;;;4992278;28;20042;-69
2021/11/09 10:34:44;;;;;;;9.25;5.07;;;5.80;92.40;;;;;;4996074;28;20036;-69
2021/11/09 10:37:26;;;;;;;9.50;4.88;;;5.90;92.30;;;;;;5021744;28;20044;-68
2021/11/09 10:39:54;;;;;;;8.35;4.65;;;6.00;92.40;;;;;;5010926;28;20032;-68
2021/11/09 10:42:21;;;;;;;;;;;6.00;92.80;;;;;;5009225;28;20430;-68
2021/11/09 10:45:00;;;;;;;6.82;3.97;;;6.00;91.90;;;;;;5023856;28;20570;-68
2021/11/09 10:47:32;;;;;;;9.48;4.25;;;6.10;91.10;;;;;;4992415;28;21099;-68
2021/11/09 10:50:00;;;;;;;9.57;4.40;;;6.10;90.90;;;;;;5005286;28;20041;-69
2021/11/09 10:52:34;;;;;;;7.32;4.32;;;6.10;90.40;;;;;;5005027;28;20409;-68
2021/11/09 10:57:54;;;;;;;10.80;5.18;;;6.30;89.90;;;;;;5010262;28;20037;-68
2021/11/09 11:06:35;;;;;;;7.55;4.78;;;6.50;89.40;;;;;;5005843;28;20490;-69
2021/11/09 11:09:10;;;;;;;6.35;4.47;;;6.50;88.80;;;;;;5002770;28;20033;-68
2021/11/09 11:11:40;;;;;;;7.70;4.35;;;6.60;88.30;;;;;;5002946;28;20091;-68
2021/11/09 11:14:08;;;;;;;6.97;3.88;;;6.60;86.40;;;;;;5005889;28;20034;-67
2021/11/09 11:16:55;;;;;;;8.25;4.68;;;6.70;86.60;;;;;;5002672;28;20535;-69
2021/11/09 11:19:29;;;;;;;7.05;4.60;;;6.70;85.30;;;;;;5003332;28;20112;-69
2021/11/09 11:21:58;;;;;;;7.18;4.15;;;6.80;86.80;;;;;;5012513;28;20026;-68
2021/11/09 11:24:25;;;;;;;8.18;3.65;;;6.80;83.50;;;;;;5003235;28;20065;-69
2021/11/09 11:26:53;;;;;;;8.88;3.80;;;6.80;83.20;;;;;;5022931;28;20097;-68
2021/11/09 11:29:21;;;;;;;6.95;4.38;;;6.80;83.90;;;;;;4999383;28;20034;-69
2021/11/09 11:31:48;;;;;;;9.18;3.65;;;6.80;83.40;;;;;;5006261;28;20037;-68
2021/11/09 11:34:19;;;;;;;8.13;4.00;;;6.90;84.00;;;;;;5012090;28;20057;-68
2021/11/09 11:36:45;;;;;;;5.20;4.22;;;6.90;82.00;;;;;;5023522;28;20042;-68
2021/11/09 11:39:13;;;;;;;10.50;3.83;;;6.90;83.00;;;;;;5006815;28;20037;-68
2021/11/09 11:41:43;;;;;;;8.13;4.70;;;6.90;81.50;;;;;;5005570;28;20025;-70
2021/11/09 11:44:10;;;;;;;7.30;3.90;;;7.10;83.40;;;;;;5005661;28;20625;-68
2021/11/09 11:46:36;;;;;;;7.63;4.17;;;7.10;82.60;;;;;;5002918;28;20040;-68
2021/11/09 11:49:06;;;;;;;5.45;3.50;;;7.10;82.80;;;;;;5007666;28;20034;-69
2021/11/09 11:51:34;;;;;;;5.97;3.50;;;7.20;80.00;;;;;;5024452;28;20046;-69
2021/11/09 11:54:01;;;;;;;4.47;3.20;;;7.20;79.40;;;;;;5003041;28;20037;-68
2021/11/09 11:56:42;;;;;;;5.20;3.35;;;7.20;78.40;;;;;;5001285;28;20507;-68
2021/11/09 11:59:28;;;;;;;6.85;3.65;;;7.10;77.00;;;;;;5023647;28;20030;-68
2021/11/09 12:01:58;;;;;;;4.88;3.53;;;7.10;76.90;;;;;;5010652;28;20034;-68
2021/11/09 12:04:43;;;;;;;8.45;3.92;;;7.10;77.50;;;;;;5007255;28;20033;-69
2021/11/09 12:07:15;;;;;;;9.40;4.22;;;7.10;77.90;;;;;;5016163;28;20036;-68
2021/11/09 12:09:46;;;;;;;7.82;3.50;;;7.20;77.10;;;;;;5026648;28;20038;-68
2021/11/09 12:12:18;;;;;;;6.47;3.70;;;7.30;77.30;;;;;;5020204;28;20026;-68
2021/11/09 12:14:44;;;;;;;9.57;4.15;;;7.20;77.40;;;;;;5006408;28;20030;-69
2021/11/09 12:17:12;;;;;;;9.00;3.38;;;7.30;75.30;;;;;;5014526;28;20814;-69
2021/11/09 12:19:39;;;;;;;8.13;3.85;;;7.30;75.50;;;;;;5012685;28;20576;-67
2021/11/09 12:22:11;;;;;;;8.00;3.58;;;7.30;76.40;;;;;;5012173;28;20105;-68
2021/11/09 12:24:49;;;;;;;9.10;3.55;;;7.30;76.70;;;;;;5008621;28;20033;-68
2021/11/09 12:27:15;;;;;;;10.75;3.88;;;7.40;76.90;;;;;;5010586;28;20018;-67
2021/11/09 12:29:44;;;;;;;9.25;4.20;;;7.40;76.40;;;;;;5012249;28;20036;-67
2021/11/09 12:32:31;;;;;;;7.05;3.72;;;7.40;77.40;;;;;;5009475;28;20550;-67
2021/11/09 12:35:11;;;;;;;4.03;3.13;;;7.40;77.10;;;;;;5005730;28;20026;-67
2021/11/09 12:37:55;;;;;;;9.50;4.15;;;7.50;76.80;;;;;;5005129;28;20498;-67
2021/11/09 12:40:32;;;;;;;7.88;3.88;;;7.50;76.60;;;;;;5004941;28;20029;-68
2021/11/09 12:43:19;;;;;;;9.00;3.70;;;7.50;75.50;;;;;;5022197;28;20030;-67
2021/11/09 12:46:11;;;;;;;8.50;3.47;;;7.50;76.50;;;;;;5002881;28;20029;-68
2021/11/09 12:48:50;;;;;;;9.43;4.28;;;7.50;77.00;;;;;;5010049;28;20022;-67
2021/11/09 12:51:20;;;;;;;6.57;4.43;;;7.50;77.20;;;;;;5013613;28;20034;-68
2021/11/09 12:53:48;;;;;;;9.20;4.40;;;7.40;76.90;;;;;;5007899;28;20049;-68
2021/11/09 12:56:22;;;;;;;8.77;4.95;;;7.40;78.00;;;;;;5006599;28;20033;-67
2021/11/09 12:59:02;;;;;;;7.50;4.82;;;7.50;78.80;;;;;;5014970;28;20029;-68
2021/11/09 13:09:44;;;;;;;9.32;4.60;;;7.40;80.80;;;;;;5004863;28;20035;-67
2021/11/09 13:12:19;;;;;;;8.98;5.03;;;7.50;79.20;;;;;;5004398;28;20112;-68
2021/11/09 13:14:48;;;;;;;9.48;5.07;;;7.50;79.60;;;;;;5008994;28;20525;-68
2021/11/09 13:17:31;;;;;;;9.77;5.03;;;7.50;81.10;;;;;;5012465;28;20060;-68
2021/11/09 13:20:14;;;;;;;9.25;5.10;;;7.50;80.70;;;;;;5009730;28;20137;-67
2021/11/09 13:22:54;;;;;;;8.98;4.93;;;7.50;79.60;;;;;;5004992;28;20026;-67
2021/11/09 13:25:37;;;;;;;11.75;6.38;;;7.50;79.40;;;;;;5010802;28;20084;-68
2021/11/09 13:28:25;;;;;;;13.75;5.13;;;7.50;78.00;;;;;;5026641;28;20890;-67
2021/11/09 13:31:02;;;;;;;9.85;5.20;;;7.40;78.80;;;;;;5007481;28;20592;-68
2021/11/09 13:33:29;;;;;;;10.00;4.80;;;7.40;79.20;;;;;;5003490;28;20029;-68
2021/11/09 13:35:56;;;;;;;7.47;4.60;;;7.50;78.80;;;;;;5007189;28;20026;-68
2021/11/09 13:38:33;;;;;;;9.95;5.38;;;7.50;79.70;;;;;;5010351;28;20033;-69
2021/11/09 13:41:06;;;;;;;10.15;6.20;;;7.50;78.80;;;;;;5019830;28;20482;-69
2021/11/09 13:43:38;;;;;;;8.82;5.57;;;7.50;78.00;;;;;;5008579;28;20971;-69
2021/11/09 13:46:08;;;;;;;10.05;5.57;;;7.50;77.20;;;;;;5005710;28;20038;-68
2021/11/09 13:48:39;;;;;;;5.28;4.70;;;7.50;77.70;;;;;;5015808;28;20156;-69
2021/11/09 13:51:11;;;;;;;11.73;5.53;;;7.60;75.60;;;;;;5005204;28;20037;-68
2021/11/09 13:53:40;;;;;;;8.85;5.32;;;7.60;77.00;;;;;;5014533;28;20061;-69
2021/11/09 13:56:15;;;;;;;7.93;4.78;;;7.60;76.30;;;;;;5003782;28;20458;-69
2021/11/09 13:58:52;;;;;;;6.15;4.38;;;7.60;76.80;;;;;;5009277;28;20010;-69
2021/11/09 14:01:34;;;;;;;8.73;4.68;;;7.70;75.80;;;;;;4996229;28;20038;-69
2021/11/09 14:09:31;;;;;;;7.22;4.35;;;7.70;75.80;;;;;;5012858;28;19960;-68
2021/11/09 14:17:33;;;;;;;5.75;4.38;;;7.70;77.50;;;;;;5005989;28;20052;-67
2021/11/09 14:20:14;;;;;;;6.00;4.00;;;7.70;76.50;;;;;;5009123;28;20051;-68
2021/11/09 14:22:42;;;;;;;5.55;3.70;;;7.80;76.40;;;;;;5006126;28;20433;-69
2021/11/09 14:25:10;;;;;;;7.32;3.75;;;8.20;76.50;;;;;;5006076;28;20025;-69
2021/11/09 14:27:44;;;;;;;9.63;4.25;;;8.20;75.60;;;;;;5006073;28;20076;-69
2021/11/09 14:30:11;;;;;;;5.90;4.22;;;8.20;75.80;;;;;;5002871;28;20034;-68
2021/11/09 14:32:37;;;;;;;7.15;4.05;;;8.10;76.10;;;;;;5005545;28;20037;-68
2021/11/09 14:35:08;;;;;;;7.95;4.45;;;8.10;75.20;;;;;;5000096;28;20041;-68
2021/11/09 14:38:26;;;;;;;7.72;4.35;;;8.20;75.00;;;;;;5005421;28;20398;-67
2021/11/09 14:40:53;;;;;;;5.43;3.58;;;8.00;74.50;;;;;;5004570;28;20858;-68
2021/11/09 14:43:27;;;;;;;8.38;4.25;;;7.90;74.80;;;;;;4992711;28;20080;-68
2021/11/09 14:46:05;;;;;;;6.07;4.50;;;7.90;74.70;;;;;;5013940;28;20022;-67
2021/11/09 14:51:20;;;;;;;6.82;4.20;;;7.70;75.40;;;;;;4993353;28;20066;-69
2021/11/09 14:54:33;;;;;;;4.18;2.78;;;7.70;75.10;;;;;;4997565;28;20080;-68
2021/11/09 14:56:39;;;;;;;9.05;3.83;;;7.70;75.80;;;;;;4987061;28;20489;-67
2021/11/09 14:59:16;;;;;;;;;;;7.70;75.70;;;;;;4992914;28;20077;-68
2021/11/09 15:01:57;;;;;;;7.72;3.83;;;7.60;75.60;;;;;;5008135;28;20820;-68
2021/11/09 15:09:39;;;;;;;6.68;3.92;;;7.40;77.10;;;;;;4991727;28;20060;-68
2021/11/09 15:12:49;;;;;;;9.70;5.18;;;7.40;77.30;;;;;;4992306;28;20032;-68
2021/11/09 15:28:47;;;;;;;7.53;4.55;;;7.20;78.90;;;;;;4991490;28;20030;-69
2021/11/09 15:39:28;;;;;;;6.15;4.20;;;7.00;80.50;;;;;;4993402;28;20048;-68
2021/11/09 15:41:55;;;;;;;6.13;4.20;;;6.90;80.90;;;;;;4990448;28;20026;-68
2021/11/09 15:44:22;;;;;;;7.50;4.47;;;6.90;81.20;;;;;;5011405;28;20040;-68
2021/11/09 15:46:54;;;;;;;6.45;4.20;;;6.90;81.30;;;;;;4994324;28;20666;-69
2021/11/09 15:49:20;;;;;;;9.05;5.00;;;6.90;81.50;;;;;;4995210;28;20022;-69
2021/11/09 15:51:46;;;;;;;6.50;4.55;;;6.80;81.50;;;;;;4992865;28;20049;-69
2021/11/09 15:54:12;;;;;;;9.52;4.07;;;6.80;81.50;;;;;;4993340;28;20033;-68
2021/11/09 15:56:39;;;;;;;8.73;4.40;;;6.80;81.90;;;;;;4991182;28;20062;-68
2021/11/09 15:59:06;;;;;;;7.20;4.10;;;6.80;81.80;;;;;;4994206;28;20021;-68
2021/11/09 16:01:33;;;;;;;8.60;4.40;;;6.70;81.70;;;;;;4992056;28;20104;-68
2021/11/09 16:03:58;;;;;;;9.48;4.25;;;6.70;81.60;;;;;;4992492;28;20092;-69
2021/11/09 16:06:28;;;;;;;6.53;3.90;;;6.60;81.60;;;;;;5011588;28;20026;-68
2021/11/09 16:08:54;;;;;;;6.22;3.47;;;6.60;82.30;;;;;;4990346;28;20024;-68
2021/11/09 16:11:20;;;;;;;8.10;3.95;;;6.50;82.60;;;;;;4994873;28;20022;-69